Terminal Aerodrome Forecast
Issued by NWS

Home | Current Version | Previous Version | Text Only | Print | Product List | Glossary On
Versions: 1 2 3 4 5 6 7 8 9 10 11 12 13
000
FTUS46 KMTR 032336
TAFSTS
TAF
KSTS 032336Z 0400/0424 21010KT P6SM FEW150
     FM040400 16004KT P6SM SKC
     FM040700 VRB03KT P6SM BKN012
     FM041300 00000KT P6SM OVC010
     FM041800 VRB03KT P6SM SCT200
     FM042100 20009KT P6SM SCT200=

USA.gov is the U.S. government's official web portal to all federal, state and local government web resources and services.